Time;durP1;ratioP1;P1;durP2;ratioP2;P2;SDS_P1;SDS_P2;PMS_P1;PMS_P2;Temp;Humidity;BMP_temperature;BMP_pressure;BME280_temperature;BME280_humidity;BME280_pressure;Samples;Min_cycle;Max_cycle;Signal;HPM_P1;HPM_P2
2022/01/18 00:00:45;;;;;;;30.15;10.75;;;;;;;6.87;87.03;103489.72;7402933;19;20003;-67
2022/01/18 00:03:14;;;;;;;26.50;9.88;;;;;;;6.84;87.07;103495.09;7402757;19;20344;-67
2022/01/18 00:05:43;;;;;;;28.63;10.27;;;;;;;6.85;86.97;103502.91;7402329;19;20361;-68
2022/01/18 00:08:14;;;;;;;21.85;10.75;;;;;;;6.85;87.21;103489.81;7403513;19;20011;-68
2022/01/18 00:10:41;;;;;;;25.25;10.52;;;;;;;6.86;87.25;103493.25;7403873;19;20440;-67
2022/01/18 00:13:23;;;;;;;31.80;11.32;;;;;;;6.85;87.31;103488.97;7400980;19;20074;-68
2022/01/18 00:18:21;;;;;;;27.88;10.73;;;;;;;6.83;87.34;103489.03;7403326;19;20582;-67
2022/01/18 00:23:40;;;;;;;27.90;11.07;;;;;;;6.82;86.82;103484.69;7402031;19;20029;-66
2022/01/18 00:26:08;;;;;;;25.30;11.25;;;;;;;6.76;86.64;103487.56;7401711;19;20411;-68
2022/01/18 00:28:37;;;;;;;30.15;12.00;;;;;;;6.75;86.89;103488.50;7405536;19;20014;-67
2022/01/18 00:31:29;;;;;;;30.83;12.02;;;;;;;6.74;86.91;103492.00;7399120;19;20003;-67
2022/01/18 00:38:49;;;;;;;24.70;10.82;;;;;;;6.68;86.95;103496.63;7405421;19;20383;-67
2022/01/18 00:41:20;;;;;;;32.22;12.93;;;;;;;6.66;86.85;103494.06;7401408;19;20038;-67
2022/01/18 00:43:47;;;;;;;25.05;10.45;;;;;;;6.65;86.98;103495.00;7401576;19;20523;-67
2022/01/18 00:46:17;;;;;;;27.13;12.38;;;;;;;6.64;87.51;103493.28;7400781;19;20042;-67
2022/01/18 00:48:45;;;;;;;25.15;11.43;;;;;;;6.58;86.91;103485.69;7402336;19;20031;-66
2022/01/18 00:51:14;;;;;;;90.03;19.02;;;;;;;6.57;87.78;103470.91;7399766;19;20333;-67
2022/01/18 00:53:43;;;;;;;53.47;17.15;;;;;;;6.60;89.46;103473.41;7402061;19;20006;-68
2022/01/18 00:58:47;;;;;;;35.08;12.25;;;;;;;6.47;87.61;103469.56;7399961;19;20015;-69
2022/01/18 01:01:16;;;;;;;177.63;20.55;;;;;;;6.44;87.44;103475.78;7400750;19;20011;-68
2022/01/18 01:03:44;;;;;;;73.22;17.60;;;;;;;6.47;89.13;103469.56;7404057;19;20014;-67
2022/01/18 01:06:11;;;;;;;139.23;20.73;;;;;;;6.48;89.42;103467.81;7399501;19;20013;-68
2022/01/18 01:08:39;;;;;;;29.92;12.93;;;;;;;6.45;90.00;103469.63;7397663;19;20007;-68
2022/01/18 01:11:08;;;;;;;27.23;12.07;;;;;;;6.38;88.93;103473.41;7396192;19;20085;-67
2022/01/18 01:13:41;;;;;;;39.17;14.20;;;;;;;6.38;89.54;103465.56;7393265;19;20017;-67
2022/01/18 01:16:31;;;;;;;;;;;;;;;6.33;89.05;103459.66;7394758;19;20010;-67
2022/01/18 01:36:44;;;;;;;27.63;11.50;;;;;;;6.08;88.25;103451.06;7394403;19;20093;-68
2022/01/18 01:42:01;;;;;;;30.10;11.75;;;;;;;6.04;88.00;103446.88;7392350;19;20078;-68
2022/01/18 01:47:00;;;;;;;29.38;10.63;;;;;;;6.09;88.33;103447.53;7396520;19;20516;-67
2022/01/18 01:49:27;;;;;;;25.73;11.23;;;;;;;6.05;88.08;103448.53;7393088;19;20017;-66
2022/01/18 01:51:54;;;;;;;33.13;12.27;;;;;;;6.07;88.33;103438.03;7391338;19;20375;-67
2022/01/18 01:54:22;;;;;;;37.08;11.35;;;;;;;6.08;88.08;103443.22;7393913;19;20010;-67
2022/01/18 01:56:49;;;;;;;35.10;11.57;;;;;;;6.10;88.29;103451.84;7391431;19;20414;-67
2022/01/18 01:59:16;;;;;;;66.68;15.95;;;;;;;6.15;88.87;103447.28;7393313;19;20010;-66
2022/01/18 02:01:47;;;;;;;139.10;18.98;;;;;;;6.19;88.65;103438.44;7397116;19;20023;-69
2022/01/18 02:04:16;;;;;;;36.13;13.52;;;;;;;6.15;88.55;103431.59;7391796;19;20109;-67
2022/01/18 02:06:44;;;;;;;48.15;15.30;;;;;;;6.19;90.67;103438.44;7393064;19;20011;-68
2022/01/18 02:09:12;;;;;;;31.25;12.60;;;;;;;6.16;90.06;103435.06;7395235;19;20011;-67
2022/01/18 02:11:39;;;;;;;31.88;13.48;;;;;;;6.17;90.95;103435.03;7394053;19;20021;-67
2022/01/18 02:14:12;;;;;;;52.05;15.68;;;;;;;6.11;90.06;103437.00;7391154;19;20328;-67
2022/01/18 02:24:12;;;;;;;72.90;17.42;;;;;;;5.93;91.31;103446.41;7395397;19;20013;-67
2022/01/18 02:26:39;;;;;;;29.52;13.45;;;;;;;5.88;91.04;103443.13;7392312;19;20011;-68
2022/01/18 02:29:09;;;;;;;30.30;12.32;;;;;;;5.82;89.27;103446.78;7395093;19;20522;-67
2022/01/18 02:31:37;;;;;;;34.35;12.13;;;;;;;5.78;88.68;103442.59;7389105;19;20007;-67
2022/01/18 02:34:09;;;;;;;33.90;12.55;;;;;;;5.75;88.73;103444.44;7392629;19;20745;-67
2022/01/18 02:36:37;;;;;;;33.33;12.27;;;;;;;5.68;88.51;103435.16;7391425;19;20020;-66
2022/01/18 02:39:07;;;;;;;31.75;12.07;;;;;;;5.68;88.61;103440.38;7393200;19;20393;-65
2022/01/18 02:41:38;;;;;;;32.20;13.13;;;;;;;5.70;88.68;103449.84;7392717;19;20860;-67
2022/01/18 02:44:12;;;;;;;23.10;11.50;;;;;;;5.73;88.88;103448.88;7389800;19;20089;-67
2022/01/18 02:46:42;;;;;;;29.55;12.35;;;;;;;5.73;89.05;103439.28;7389672;19;20011;-65
2022/01/18 02:49:10;;;;;;;27.52;11.07;;;;;;;5.74;88.69;103443.59;7389386;19;20093;-67
2022/01/18 02:51:37;;;;;;;32.00;11.52;;;;;;;5.72;88.75;103434.13;7393338;19;20099;-66
2022/01/18 02:54:07;;;;;;;30.95;11.52;;;;;;;5.74;88.72;103432.31;7389411;19;20014;-67
2022/01/18 02:56:38;;;;;;;27.65;12.00;;;;;;;5.76;89.02;103435.69;7391948;19;20038;-66
2022/01/18 03:04:07;;;;;;;78.40;16.35;;;;;;;5.82;89.91;103417.19;7389528;19;20024;-66
2022/01/18 03:06:34;;;;;;;30.83;11.32;;;;;;;5.78;89.85;103420.84;7390138;19;20048;-66
2022/01/18 03:09:02;;;;;;;31.15;11.27;;;;;;;5.73;89.08;103418.41;7394983;19;20019;-67
2022/01/18 03:11:29;;;;;;;30.00;11.65;;;;;;;5.71;88.99;103408.91;7388693;19;20011;-67
2022/01/18 03:13:56;;;;;;;25.65;11.02;;;;;;;5.70;89.30;103409.81;7389983;19;20010;-67
2022/01/18 03:16:23;;;;;;;23.52;11.32;;;;;;;5.66;88.72;103416.06;7392864;19;20028;-67
2022/01/18 03:18:50;;;;;;;30.42;11.55;;;;;;;5.64;88.71;103417.91;7392307;19;20021;-68
2022/01/18 03:21:18;;;;;;;28.05;11.85;;;;;;;5.65;88.83;103412.59;7393268;19;20010;-66
2022/01/18 03:23:51;;;;;;;26.23;11.75;;;;;;;5.66;89.15;103408.22;7394023;19;20015;-67
2022/01/18 03:26:19;;;;;;;26.27;10.98;;;;;;;5.61;88.88;103408.41;7390802;19;20023;-66
2022/01/18 03:28:46;;;;;;;29.73;11.38;;;;;;;5.57;88.84;103410.28;7392693;19;20017;-66
2022/01/18 03:31:13;;;;;;;29.60;11.90;;;;;;;5.59;89.13;103404.97;7386909;19;20010;-67
2022/01/18 03:33:40;;;;;;;31.35;11.90;;;;;;;5.64;89.09;103413.50;7393151;19;20010;-68
2022/01/18 03:36:07;;;;;;;37.53;12.73;;;;;;;5.64;89.01;103410.06;7391426;19;20630;-66
2022/01/18 03:38:35;;;;;;;21.92;11.07;;;;;;;5.62;89.00;103425.78;7390264;19;20003;-67
2022/01/18 03:41:03;;;;;;;29.73;12.35;;;;;;;5.63;88.71;103421.41;7389800;19;20089;-66
2022/01/18 03:43:32;;;;;;;24.27;10.20;;;;;;;5.65;88.90;103417.81;7388311;19;20010;-65
2022/01/18 03:46:02;;;;;;;27.67;11.35;;;;;;;5.67;88.91;103428.22;7392219;19;20027;-66
2022/01/18 03:48:33;;;;;;;29.65;12.10;;;;;;;5.66;88.51;103422.13;7392594;19;20015;-66
2022/01/18 03:51:02;;;;;;;30.10;11.40;;;;;;;5.68;88.75;103422.09;7391032;19;20106;-66
2022/01/18 03:53:29;;;;;;;27.15;11.15;;;;;;;5.70;88.85;103418.50;7392114;19;20090;-66
2022/01/18 03:55:56;;;;;;;29.65;11.57;;;;;;;5.73;89.89;103422.78;7387781;19;20014;-66
2022/01/18 03:58:23;;;;;;;27.50;10.50;;;;;;;5.66;89.40;103426.50;7388525;19;20010;-67
2022/01/18 04:00:51;;;;;;;29.35;11.05;;;;;;;5.65;88.96;103423.03;7389799;19;20022;-66
2022/01/18 04:03:19;;;;;;;24.55;10.23;;;;;;;5.59;88.75;103416.28;7387683;19;20464;-66
2022/01/18 04:05:46;;;;;;;28.00;11.75;;;;;;;5.57;88.89;103415.50;7389064;19;20050;-66
2022/01/18 04:08:14;;;;;;;30.50;11.85;;;;;;;5.55;88.95;103414.69;7392215;19;20011;-66
2022/01/18 04:10:41;;;;;;;26.70;11.10;;;;;;;5.54;88.61;103414.75;7391604;19;20437;-67
2022/01/18 04:13:08;;;;;;;31.52;12.32;;;;;;;5.54;88.53;103417.34;7387601;19;20011;-66
2022/01/18 04:15:36;;;;;;;31.65;12.65;;;;;;;5.55;88.61;103414.69;7391819;19;20090;-66
2022/01/18 04:28:16;;;;;;;29.33;11.27;;;;;;;5.45;87.98;103402.88;7389478;19;20358;-66
2022/01/18 04:30:43;;;;;;;33.55;11.25;;;;;;;5.44;88.50;103400.31;7387852;19;20015;-67
2022/01/18 04:33:14;;;;;;;35.95;12.73;;;;;;;5.46;88.59;103398.53;7385393;19;20021;-66
2022/01/18 04:35:42;;;;;;;29.35;11.27;;;;;;;5.45;88.39;103402.88;7388781;19;20019;-67
2022/01/18 04:38:09;;;;;;;31.52;11.63;;;;;;;5.44;88.14;103400.31;7386226;19;20010;-67
2022/01/18 04:40:40;;;;;;;24.90;11.63;;;;;;;5.44;87.89;103401.19;7387836;19;20017;-66
2022/01/18 04:50:39;;;;;;;24.88;11.02;;;;;;;5.38;87.95;103388.38;7394603;19;20014;-66
2022/01/18 04:53:06;;;;;;;27.17;11.18;;;;;;;5.36;88.07;103379.72;7392365;19;20024;-66
2022/01/18 04:55:35;;;;;;;26.70;10.93;;;;;;;5.34;87.87;103375.47;7393360;19;20015;-65
2022/01/18 04:58:02;;;;;;;25.75;10.85;;;;;;;5.32;87.66;103378.16;7396820;19;20010;-66
2022/01/18 05:00:30;;;;;;;25.75;11.27;;;;;;;5.32;87.65;103385.13;7395075;19;20017;-67
2022/01/18 05:02:57;;;;;;;32.13;11.02;;;;;;;5.29;87.94;103369.56;7394465;19;20070;-65
2022/01/18 05:05:28;;;;;;;29.42;10.82;;;;;;;5.26;87.71;103372.28;7393319;19;20050;-67
2022/01/18 05:08:00;;;;;;;21.17;10.02;;;;;;;5.19;88.01;103366.44;7395285;19;20010;-66
2022/01/18 05:10:29;;;;;;;25.10;10.83;;;;;;;5.15;87.77;103363.09;7397846;19;20082;-66
2022/01/18 05:12:59;;;;;;;25.73;10.30;;;;;;;5.18;88.09;103364.75;7390319;19;20011;-67
2022/01/18 05:23:01;;;;;;;23.73;11.45;;;;;;;5.22;87.86;103363.72;7392619;19;20086;-67
2022/01/18 05:25:29;;;;;;;27.48;10.70;;;;;;;5.22;87.52;103368.09;7395244;19;20568;-68
2022/01/18 05:27:58;;;;;;;25.98;10.10;;;;;;;5.22;87.68;103368.09;7393740;19;20460;-67
2022/01/18 05:30:27;;;;;;;27.55;11.38;;;;;;;5.23;87.76;103362.84;7394131;19;20019;-66
2022/01/18 05:32:55;;;;;;;60.55;15.75;;;;;;;5.25;87.74;103365.34;7390368;19;20011;-67
2022/01/18 05:35:23;;;;;;;113.03;17.05;;;;;;;5.27;88.59;103359.19;7393570;19;20014;-67
2022/01/18 05:37:51;;;;;;;27.30;11.55;;;;;;;5.27;88.04;103364.41;7395586;19;20094;-67
2022/01/18 05:40:19;;;;;;;31.33;11.95;;;;;;;5.26;87.43;103362.72;7398775;19;20086;-66
2022/01/18 05:42:47;;;;;;;67.22;15.40;;;;;;;5.28;88.42;103358.28;7394715;19;20029;-67
2022/01/18 05:45:14;;;;;;;29.15;10.57;;;;;;;5.26;88.55;103365.31;7395332;19;20308;-65
2022/01/18 05:47:42;;;;;;;26.48;11.32;;;;;;;5.16;87.82;103362.19;7392361;19;20479;-66
2022/01/18 05:50:12;;;;;;;23.45;10.60;;;;;;;5.14;87.91;103356.16;7391883;19;20090;-66
2022/01/18 05:52:42;;;;;;;;;;;;;;;5.14;88.08;103350.09;7392273;19;20011;-71
2022/01/18 05:55:13;;;;;;;19.58;9.35;;;;;;;5.09;88.32;103360.69;7392559;19;19911;-67
2022/01/18 05:57:43;;;;;;;27.75;11.50;;;;;;;5.05;87.92;103350.41;7393811;19;20006;-66
2022/01/18 06:00:19;;;;;;;24.95;10.88;;;;;;;4.97;87.43;103357.69;7392583;19;20034;-66
2022/01/18 06:03:00;;;;;;;27.75;11.15;;;;;;;5.02;88.10;103350.53;7392408;19;20007;-66
2022/01/18 06:08:01;;;;;;;25.05;10.93;;;;;;;5.02;87.15;103346.19;7395250;19;20011;-67
2022/01/18 06:10:28;;;;;;;26.58;12.02;;;;;;;5.03;87.15;103352.22;7392778;19;20014;-68
2022/01/18 06:12:55;;;;;;;26.63;11.55;;;;;;;4.99;87.28;103346.28;7390073;19;20472;-67
2022/01/18 06:15:22;;;;;;;22.10;10.50;;;;;;;5.00;87.24;103353.19;7392926;19;20070;-66
2022/01/18 06:17:49;;;;;;;23.38;11.27;;;;;;;5.03;87.46;103353.06;7391328;19;20011;-66
2022/01/18 06:20:17;;;;;;;26.35;10.85;;;;;;;5.01;87.54;103348.84;7392963;19;20014;-68
2022/01/18 06:22:44;;;;;;;27.10;10.48;;;;;;;4.97;87.67;103342.88;7391615;19;20105;-68
2022/01/18 06:25:12;;;;;;;28.55;11.48;;;;;;;4.94;87.51;103355.16;7393487;19;20017;-67
2022/01/18 06:27:39;;;;;;;28.75;11.95;;;;;;;4.96;87.49;103351.59;7393440;19;20446;-68
2022/01/18 06:30:09;;;;;;;25.90;11.02;;;;;;;4.96;87.32;103348.16;7393172;19;20475;-66
2022/01/18 06:32:39;;;;;;;26.70;11.65;;;;;;;4.99;87.83;103359.31;7391273;19;20069;-67
2022/01/18 06:35:08;;;;;;;28.60;12.25;;;;;;;5.02;87.92;103358.38;7393140;19;20085;-66
2022/01/18 06:37:35;;;;;;;25.25;11.75;;;;;;;5.03;87.09;103352.22;7390643;19;20106;-66
2022/01/18 06:40:04;;;;;;;34.42;13.60;;;;;;;5.01;87.04;103351.44;7391362;19;20011;-68
2022/01/18 06:42:32;;;;;;;25.10;11.80;;;;;;;4.98;87.35;103370.66;7390518;19;20027;-67
2022/01/18 06:44:59;;;;;;;30.23;11.65;;;;;;;4.97;87.36;103365.50;7390592;19;20361;-68
2022/01/18 06:47:27;;;;;;;28.95;12.40;;;;;;;4.93;87.20;103356.06;7394186;19;20038;-67
2022/01/18 06:49:54;;;;;;;33.05;12.02;;;;;;;4.94;87.03;103355.16;7393391;19;20027;-67
2022/01/18 06:52:21;;;;;;;31.13;11.48;;;;;;;4.96;87.38;103351.59;7388782;19;20036;-67
2022/01/18 06:54:48;;;;;;;32.90;11.30;;;;;;;5.00;87.48;103354.94;7390372;19;20407;-67
2022/01/18 06:57:16;;;;;;;31.00;12.32;;;;;;;5.03;87.13;103360.03;7392639;19;20011;-67
2022/01/18 06:59:44;;;;;;;31.08;11.00;;;;;;;5.06;87.16;103352.13;7391601;19;20414;-68
2022/01/18 07:02:11;;;;;;;27.25;11.32;;;;;;;5.08;87.25;103363.34;7391183;19;20511;-67
2022/01/18 07:04:39;;;;;;;25.65;11.63;;;;;;;5.08;87.12;103361.59;7390942;19;20006;-68
2022/01/18 07:07:06;;;;;;;25.92;12.43;;;;;;;5.08;87.00;103363.34;7387856;19;20455;-68
2022/01/18 07:09:35;;;;;;;29.63;11.57;;;;;;;5.03;86.89;103363.50;7393920;19;20007;-68
2022/01/18 07:12:09;;;;;;;28.83;12.23;;;;;;;5.06;86.94;103375.59;7389232;19;20359;-66
2022/01/18 07:14:37;;;;;;;30.27;11.98;;;;;;;5.04;86.79;103373.03;7390527;19;20011;-67
2022/01/18 07:17:05;;;;;;;26.38;11.60;;;;;;;5.06;86.95;103380.84;7391378;19;20360;-67
2022/01/18 07:19:35;;;;;;;27.15;11.95;;;;;;;5.04;86.89;103380.88;7393443;19;20002;-68
2022/01/18 07:22:03;;;;;;;30.65;12.55;;;;;;;5.06;86.94;103381.69;7389517;19;20010;-66
2022/01/18 07:27:04;;;;;;;;;;;;;;;5.09;86.79;103384.16;7389499;19;20018;-68
2022/01/18 07:29:35;;;;;;;31.58;11.82;;;;;;;5.10;86.33;103391.09;7389714;19;19971;-69
2022/01/18 07:32:06;;;;;;;31.20;12.13;;;;;;;5.09;86.48;103388.53;7389088;19;20006;-68
2022/01/18 07:34:38;;;;;;;27.58;11.93;;;;;;;5.07;86.10;103393.81;7388250;19;20489;-67
2022/01/18 07:37:06;;;;;;;28.00;12.35;;;;;;;5.05;85.96;103386.94;7389396;19;20085;-68
2022/01/18 07:39:33;;;;;;;28.52;12.40;;;;;;;5.06;86.11;103396.47;7395061;19;20010;-68
2022/01/18 07:42:00;;;;;;;28.85;12.10;;;;;;;5.07;86.23;103396.44;7392444;19;20021;-66
2022/01/18 07:44:29;;;;;;;33.53;13.65;;;;;;;5.06;85.77;103392.13;7389300;19;20521;-67
2022/01/18 07:46:57;;;;;;;27.15;12.55;;;;;;;5.09;86.02;103398.97;7389654;19;20006;-67
2022/01/18 07:49:24;;;;;;;28.45;13.05;;;;;;;5.08;86.03;103403.34;7389710;19;20018;-68
2022/01/18 07:51:51;;;;;;;29.17;12.88;;;;;;;5.10;85.92;103404.16;7390412;19;20002;-66
2022/01/18 07:54:18;;;;;;;28.60;12.73;;;;;;;5.12;85.75;103404.94;7393803;19;20410;-67
2022/01/18 07:56:45;;;;;;;27.90;13.27;;;;;;;5.13;85.63;103408.38;7392957;19;20146;-67
2022/01/18 07:59:13;;;;;;;32.15;13.80;;;;;;;5.11;85.59;103403.25;7394332;19;20014;-69
2022/01/18 08:01:42;;;;;;;28.25;12.35;;;;;;;5.10;85.83;103404.16;7389450;19;20046;-69
2022/01/18 08:04:10;;;;;;;31.08;12.90;;;;;;;5.13;86.08;103398.81;7388525;19;20086;-67
2022/01/18 08:06:38;;;;;;;30.85;12.98;;;;;;;5.15;86.40;103409.19;7389223;19;20113;-67
2022/01/18 08:09:05;;;;;;;28.88;13.68;;;;;;;5.14;86.05;103403.13;7392153;19;20015;-68
2022/01/18 08:11:32;;;;;;;35.85;13.25;;;;;;;5.16;86.77;103405.69;7391643;19;20575;-68
2022/01/18 08:14:01;;;;;;;27.52;12.90;;;;;;;5.18;86.48;103414.34;7386818;19;20070;-68
2022/01/18 08:19:00;;;;;;;29.85;11.48;;;;;;;5.12;86.26;103397.13;7396727;19;20054;-67
2022/01/18 08:21:33;;;;;;;36.15;14.52;;;;;;;5.13;86.69;103401.41;7399290;19;20011;-67
2022/01/18 08:24:01;;;;;;;31.77;13.45;;;;;;;5.10;86.88;103396.31;7395911;19;20029;-68
2022/01/18 08:26:28;;;;;;;29.77;14.00;;;;;;;5.09;86.76;103398.97;7395228;19;20010;-67
2022/01/18 08:28:55;;;;;;;32.97;13.60;;;;;;;5.10;87.05;103400.69;7397754;19;20018;-67
2022/01/18 08:31:23;;;;;;;31.13;13.05;;;;;;;5.12;87.04;103393.66;7399914;19;20038;-67
2022/01/18 08:33:50;;;;;;;31.08;14.48;;;;;;;5.14;87.25;103402.28;7393286;19;20034;-67
2022/01/18 08:36:18;;;;;;;139.60;19.13;;;;;;;5.19;87.18;103402.97;7397717;19;20018;-67
2022/01/18 08:38:47;;;;;;;30.95;12.48;;;;;;;5.25;88.11;103405.34;7397768;19;20073;-67
2022/01/18 08:41:15;;;;;;;92.50;19.25;;;;;;;5.27;87.43;103400.94;7395609;19;20016;-67
2022/01/18 08:43:42;;;;;;;28.77;13.90;;;;;;;5.29;89.21;103406.94;7379279;19;20026;-68
2022/01/18 08:46:10;;;;;;;217.80;24.33;;;;;;;5.28;88.48;103409.63;7392021;19;20034;-65
2022/01/18 08:48:39;;;;;;;29.52;12.40;;;;;;;5.28;88.51;103410.50;7395191;19;20559;-68
2022/01/18 08:51:06;;;;;;;24.98;11.38;;;;;;;5.30;88.22;103411.28;7391913;19;20028;-67
2022/01/18 08:53:35;;;;;;;50.40;20.50;;;;;;;5.31;87.99;103405.16;7390121;19;20010;-67
2022/01/18 08:56:03;;;;;;;36.10;15.05;;;;;;;5.37;88.82;103407.53;7392522;19;20035;-68
2022/01/18 08:58:32;;;;;;;143.07;23.55;;;;;;;5.49;90.62;103401.84;7393681;19;20106;-69
2022/01/18 09:04:36;;;;;;;32.08;14.32;;;;;;;5.62;88.65;103406.66;7394049;19;20002;-67
2022/01/18 09:07:08;;;;;;;29.85;13.82;;;;;;;5.65;88.06;103415.22;7393152;19;20007;-68
2022/01/18 09:09:39;;;;;;;164.18;25.23;;;;;;;5.69;87.77;103414.19;7397835;19;20039;-68
2022/01/18 09:12:11;;;;;;;53.25;16.70;;;;;;;5.79;89.83;103419.94;7393173;19;20031;-68
2022/01/18 09:14:39;;;;;;;27.65;14.00;;;;;;;5.82;89.67;103430.25;7397225;19;20027;-66
2022/01/18 09:17:07;;;;;;;49.85;21.35;;;;;;;5.81;88.67;103431.16;7393703;19;20359;-69
2022/01/18 09:19:34;;;;;;;33.22;13.23;;;;;;;5.81;88.05;103434.63;7396557;19;20572;-67
2022/01/18 09:22:03;;;;;;;29.10;13.98;;;;;;;5.84;87.69;103436.28;7396070;19;20032;-68
2022/01/18 09:24:32;;;;;;;28.70;13.20;;;;;;;5.87;87.07;103444.88;7393389;19;20013;-67
2022/01/18 09:27:00;;;;;;;32.63;12.43;;;;;;;5.96;87.18;103441.06;7393331;19;20475;-68
2022/01/18 09:29:29;;;;;;;28.27;12.57;;;;;;;6.04;86.82;103438.19;7381238;19;20018;-66
2022/01/18 09:31:57;;;;;;;30.35;11.30;;;;;;;6.12;86.51;103439.56;7393570;19;20086;-67
2022/01/18 09:34:28;;;;;;;31.42;12.98;;;;;;;6.17;86.59;103442.00;7391084;19;20006;-67
2022/01/18 09:36:58;;;;;;;26.00;12.02;;;;;;;6.16;86.24;103448.13;7393587;19;20026;-66
2022/01/18 09:39:29;;;;;;;34.67;14.73;;;;;;;6.19;86.21;103441.06;7398188;19;20542;-67
2022/01/18 09:42:02;;;;;;;36.13;15.38;;;;;;;6.24;86.14;103438.25;7395466;19;20011;-67
2022/01/18 09:44:29;;;;;;;40.63;15.32;;;;;;;6.29;85.97;103449.38;7393269;19;20014;-68
2022/01/18 09:46:57;;;;;;;32.42;15.38;;;;;;;6.30;86.02;103436.22;7395705;19;20011;-68
2022/01/18 09:49:24;;;;;;;39.67;14.68;;;;;;;6.34;85.33;103442.22;7394522;19;20074;-68
2022/01/18 09:51:51;;;;;;;36.78;14.77;;;;;;;6.37;85.51;103449.91;7392918;19;20373;-68
2022/01/18 09:54:19;;;;;;;36.20;14.15;;;;;;;6.41;85.09;103441.03;7389991;19;20015;-68
2022/01/18 09:56:46;;;;;;;34.47;14.85;;;;;;;6.44;84.83;103433.94;7392511;19;20190;-67
2022/01/18 09:59:13;;;;;;;31.35;13.43;;;;;;;6.49;84.74;103443.38;7395565;19;20025;-69
2022/01/18 10:01:41;;;;;;;53.80;21.45;;;;;;;6.54;85.16;103449.25;7391790;19;20007;-68
2022/01/18 10:04:13;;;;;;;27.65;12.50;;;;;;;6.58;85.58;103443.00;7394636;19;20025;-69
2022/01/18 10:06:41;;;;;;;28.17;12.32;;;;;;;6.60;85.31;103443.78;7396789;19;20058;-67
2022/01/18 10:09:13;;;;;;;26.30;11.63;;;;;;;6.64;84.63;103435.75;7395980;19;20349;-68
2022/01/18 10:12:02;;;;;;;24.40;10.30;;;;;;;6.67;83.87;103448.69;7391414;19;20043;-67
2022/01/18 10:14:30;;;;;;;20.85;8.43;;;;;;;6.71;83.65;103446.78;7389453;19;20010;-66
2022/01/18 10:16:57;;;;;;;19.83;9.00;;;;;;;6.74;83.78;103444.06;7391821;19;20018;-69
2022/01/18 10:19:30;;;;;;;17.73;7.63;;;;;;;6.78;83.52;103437.78;7394751;19;20019;-67
2022/01/18 10:22:03;;;;;;;16.60;8.20;;;;;;;6.81;83.19;103441.13;7394690;19;20021;-67
2022/01/18 10:24:31;;;;;;;17.60;8.82;;;;;;;6.88;83.96;103433.88;7390868;19;20006;-68
2022/01/18 10:26:58;;;;;;;16.75;8.07;;;;;;;6.94;84.06;103432.78;7395937;19;20014;-69
2022/01/18 10:29:30;;;;;;;27.60;11.60;;;;;;;6.99;84.35;103429.06;7391682;19;20558;-67
2022/01/18 10:32:00;;;;;;;22.05;10.45;;;;;;;7.04;84.95;103428.84;7392894;19;20010;-68
2022/01/18 10:37:05;;;;;;;33.08;11.25;;;;;;;7.11;85.73;103425.88;7390072;19;20011;-67
2022/01/18 10:39:40;;;;;;;22.35;9.85;;;;;;;7.15;86.64;103430.09;7390656;19;20040;-67
2022/01/18 10:42:13;;;;;;;21.83;9.48;;;;;;;7.18;86.46;103427.34;7392016;19;20043;-67
2022/01/18 10:44:41;;;;;;;25.33;10.73;;;;;;;7.21;86.48;103429.00;7393124;19;20032;-68
2022/01/18 10:47:09;;;;;;;19.98;8.88;;;;;;;7.25;86.63;103414.84;7395549;19;20031;-66
2022/01/18 10:49:40;;;;;;;24.00;9.63;;;;;;;7.27;86.63;103413.00;7393205;19;20579;-67
2022/01/18 10:52:15;;;;;;;20.63;8.55;;;;;;;7.35;86.92;103418.75;7390056;19;20611;-66
2022/01/18 10:54:45;;;;;;;27.75;10.88;;;;;;;7.45;87.37;103424.44;7391097;19;20401;-67
2022/01/18 10:57:16;;;;;;;33.15;15.25;;;;;;;7.48;87.31;103419.91;7390057;19;20006;-66
2022/01/18 10:59:44;;;;;;;27.60;9.95;;;;;;;7.54;87.77;103430.09;7391447;19;20402;-66
2022/01/18 11:02:16;;;;;;;37.90;14.93;;;;;;;7.62;87.57;103428.00;7389979;19;20010;-67
2022/01/18 11:04:48;;;;;;;27.60;11.45;;;;;;;7.65;87.46;103425.25;7391759;19;20006;-66
2022/01/18 11:07:19;;;;;;;31.50;11.63;;;;;;;7.68;86.71;103432.09;7389725;19;20091;-68
2022/01/18 11:09:47;;;;;;;30.17;13.18;;;;;;;7.73;87.50;103427.50;7390986;19;20459;-68
2022/01/18 11:12:15;;;;;;;25.60;10.98;;;;;;;7.73;87.68;103428.34;7389510;19;20484;-66
2022/01/18 11:14:44;;;;;;;20.88;9.95;;;;;;;7.78;87.85;103422.03;7388132;19;20011;-68
2022/01/18 11:17:21;;;;;;;27.20;10.38;;;;;;;7.74;88.59;103429.22;7389080;19;20405;-66
2022/01/18 11:19:56;;;;;;;24.38;10.13;;;;;;;7.71;88.24;103413.63;7390321;19;20038;-66
2022/01/18 11:22:25;;;;;;;41.85;13.07;;;;;;;7.73;88.46;103419.63;7389677;19;20013;-68
2022/01/18 11:24:58;;;;;;;30.33;9.48;;;;;;;7.76;88.71;103422.13;7388864;19;20010;-67
2022/01/18 11:27:28;;;;;;;108.32;14.68;;;;;;;7.76;89.45;103419.53;7389473;19;20023;-67
2022/01/18 11:29:56;;;;;;;38.78;12.90;;;;;;;7.81;90.16;103414.91;7389243;19;20465;-67
2022/01/18 11:32:27;;;;;;;25.25;10.10;;;;;;;7.85;90.09;103418.25;7388201;19;20115;-67
2022/01/18 11:35:01;;;;;;;33.97;11.10;;;;;;;7.83;90.18;103415.69;7386740;19;20094;-67
2022/01/18 11:37:35;;;;;;;28.77;11.20;;;;;;;7.83;91.42;103396.47;7390602;19;20367;-66
2022/01/18 11:40:09;;;;;;;24.15;10.70;;;;;;;7.83;91.13;103405.19;7392681;19;20043;-69
2022/01/18 11:42:42;;;;;;;32.72;11.48;;;;;;;7.85;91.23;103398.13;7390727;19;20022;-66
2022/01/18 11:45:12;;;;;;;;;;;;;;;7.86;91.12;103396.34;7391001;19;20078;-67
2022/01/18 11:47:39;;;;;;;61.83;15.52;;;;;;;7.86;91.14;103398.97;7390606;19;20017;-68
2022/01/18 11:50:16;;;;;;;33.38;11.27;;;;;;;7.87;91.62;103405.94;7389831;19;20023;-67
2022/01/18 11:52:47;;;;;;;119.95;14.88;;;;;;;7.89;91.54;103390.97;7387007;19;20007;-67
2022/01/18 11:55:21;;;;;;;29.02;11.05;;;;;;;7.86;91.28;103384.09;7388017;19;20520;-66
2022/01/18 11:57:51;;;;;;;25.55;10.63;;;;;;;7.88;91.54;103390.09;7390616;19;20014;-67
2022/01/18 12:00:24;;;;;;;88.45;16.95;;;;;;;7.92;92.07;103389.06;7386992;19;20031;-67
2022/01/18 12:02:55;;;;;;;34.53;12.45;;;;;;;7.93;91.98;103388.13;7388885;19;20011;-67
2022/01/18 12:05:25;;;;;;;28.75;12.88;;;;;;;7.99;91.59;103384.38;7388846;19;20375;-68
2022/01/18 12:07:58;;;;;;;37.85;14.80;;;;;;;8.03;91.90;103381.53;7389518;19;20527;-67
2022/01/18 12:10:30;;;;;;;27.95;11.40;;;;;;;8.07;91.86;103379.63;7388036;19;20066;-68
2022/01/18 12:13:00;;;;;;;29.83;11.60;;;;;;;8.09;91.62;103376.00;7391761;19;20035;-68
2022/01/18 12:15:33;;;;;;;30.63;12.52;;;;;;;8.12;91.36;103375.88;7387314;19;20423;-67
2022/01/18 12:18:02;;;;;;;39.90;15.38;;;;;;;8.14;91.41;103370.53;7390281;19;20133;-67
2022/01/18 12:20:42;;;;;;;34.63;15.23;;;;;;;8.18;91.33;103375.53;7388283;19;20028;-68
2022/01/18 12:23:13;;;;;;;53.55;17.75;;;;;;;8.21;90.86;103369.31;7391326;19;20019;-67
2022/01/18 12:28:31;;;;;;;99.85;20.92;;;;;;;8.31;91.00;103361.88;7392569;19;20464;-67
2022/01/18 12:33:38;;;;;;;38.90;13.68;;;;;;;8.35;91.02;103361.66;7384129;19;20014;-66
2022/01/18 12:36:16;;;;;;;33.08;13.27;;;;;;;8.47;94.04;103353.19;7386494;19;20007;-67
2022/01/18 12:38:43;;;;;;;1011.45;67.35;;;;;;;8.50;93.66;103344.28;7389253;19;20018;-66
2022/01/18 12:41:38;;;;;;;408.33;32.38;;;;;;;8.56;93.86;103338.75;7387807;19;20018;-67
2022/01/18 12:46:36;;;;;;;36.85;12.43;;;;;;;8.53;91.71;103329.25;7384332;19;20264;-68
2022/01/18 12:49:06;;;;;;;30.27;12.80;;;;;;;8.48;90.84;103330.44;7384213;19;20451;-67
2022/01/18 12:51:34;;;;;;;30.23;12.77;;;;;;;8.46;90.72;103324.41;7386534;19;20018;-65
2022/01/18 12:54:01;;;;;;;34.45;16.20;;;;;;;8.45;90.39;103322.69;7384236;19;20010;-67
2022/01/18 12:56:28;;;;;;;72.68;18.90;;;;;;;8.45;90.57;103318.28;7387695;19;20023;-68
2022/01/18 12:59:03;;;;;;;30.55;12.02;;;;;;;8.46;90.20;103316.53;7387282;19;20094;-67
2022/01/18 13:01:34;;;;;;;40.95;13.75;;;;;;;8.47;89.85;103316.47;7384783;19;20006;-67
2022/01/18 13:04:07;;;;;;;38.78;14.27;;;;;;;8.46;89.78;103313.91;7385276;19;20014;-66